sensor_id;sensor_type;location;lat;lon;timestamp;temperature;humidity
46440;DHT22;32138;50.966;6.968;2023-06-26T00:01:22;25.10;75.80
46440;DHT22;32138;50.966;6.968;2023-06-26T00:02:53;25.10;75.50
46440;DHT22;32138;50.966;6.968;2023-06-26T00:04:24;25.10;75.90
46440;DHT22;32138;50.966;6.968;2023-06-26T00:05:55;25.10;76.00
46440;DHT22;32138;50.966;6.968;2023-06-26T00:07:31;25.00;75.70
46440;DHT22;32138;50.966;6.968;2023-06-26T00:09:04;25.00;75.90
46440;DHT22;32138;50.966;6.968;2023-06-26T00:10:35;25.00;76.10
46440;DHT22;32138;50.966;6.968;2023-06-26T00:12:06;25.00;76.00
46440;DHT22;32138;50.966;6.968;2023-06-26T00:13:36;24.90;76.10
46440;DHT22;32138;50.966;6.968;2023-06-26T00:15:07;25.00;75.90
46440;DHT22;32138;50.966;6.968;2023-06-26T00:16:38;25.00;75.90
46440;DHT22;32138;50.966;6.968;2023-06-26T00:18:09;25.00;76.20
46440;DHT22;32138;50.966;6.968;2023-06-26T00:19:40;24.90;77.30
46440;DHT22;32138;50.966;6.968;2023-06-26T00:21:11;24.80;77.00
46440;DHT22;32138;50.966;6.968;2023-06-26T00:22:42;24.70;76.90
46440;DHT22;32138;50.966;6.968;2023-06-26T00:24:13;24.80;77.00
46440;DHT22;32138;50.966;6.968;2023-06-26T00:25:44;24.90;77.00
46440;DHT22;32138;50.966;6.968;2023-06-26T00:27:15;24.90;77.20
46440;DHT22;32138;50.966;6.968;2023-06-26T00:28:46;24.80;77.00
46440;DHT22;32138;50.966;6.968;2023-06-26T00:30:17;24.70;77.20
46440;DHT22;32138;50.966;6.968;2023-06-26T00:31:48;24.70;77.30
46440;DHT22;32138;50.966;6.968;2023-06-26T00:33:19;24.50;77.70
46440;DHT22;32138;50.966;6.968;2023-06-26T00:34:50;24.60;77.80
46440;DHT22;32138;50.966;6.968;2023-06-26T00:36:20;24.60;77.80
46440;DHT22;32138;50.966;6.968;2023-06-26T00:37:53;24.50;77.90
46440;DHT22;32138;50.966;6.968;2023-06-26T00:39:24;24.40;78.00
46440;DHT22;32138;50.966;6.968;2023-06-26T00:40:56;24.40;78.30
46440;DHT22;32138;50.966;6.968;2023-06-26T00:42:26;24.40;78.30
46440;DHT22;32138;50.966;6.968;2023-06-26T00:43:57;24.40;78.70
46440;DHT22;32138;50.966;6.968;2023-06-26T00:45:28;24.40;78.60
46440;DHT22;32138;50.966;6.968;2023-06-26T00:46:59;24.40;78.00
46440;DHT22;32138;50.966;6.968;2023-06-26T00:48:30;24.30;78.30
46440;DHT22;32138;50.966;6.968;2023-06-26T00:50:01;24.30;78.30
46440;DHT22;32138;50.966;6.968;2023-06-26T00:51:32;24.20;78.60
46440;DHT22;32138;50.966;6.968;2023-06-26T00:53:03;24.20;78.40
46440;DHT22;32138;50.966;6.968;2023-06-26T00:54:34;24.10;78.50
46440;DHT22;32138;50.966;6.968;2023-06-26T00:56:05;24.10;78.50
46440;DHT22;32138;50.966;6.968;2023-06-26T00:57:36;24.00;78.70
46440;DHT22;32138;50.966;6.968;2023-06-26T00:59:08;24.10;78.40
46440;DHT22;32138;50.966;6.968;2023-06-26T01:00:40;24.10;78.20
46440;DHT22;32138;50.966;6.968;2023-06-26T01:02:11;24.10;78.40
46440;DHT22;32138;50.966;6.968;2023-06-26T01:03:45;24.00;78.70
46440;DHT22;32138;50.966;6.968;2023-06-26T01:05:16;23.90;79.00
46440;DHT22;32138;50.966;6.968;2023-06-26T01:06:51;23.90;78.50
46440;DHT22;32138;50.966;6.968;2023-06-26T01:08:23;23.90;78.30
46440;DHT22;32138;50.966;6.968;2023-06-26T01:09:54;23.90;78.70
46440;DHT22;32138;50.966;6.968;2023-06-26T01:11:24;24.00;78.60
46440;DHT22;32138;50.966;6.968;2023-06-26T01:12:57;23.90;78.60
46440;DHT22;32138;50.966;6.968;2023-06-26T01:14:27;23.90;78.60
46440;DHT22;32138;50.966;6.968;2023-06-26T01:15:59;23.90;78.80
46440;DHT22;32138;50.966;6.968;2023-06-26T01:17:29;23.90;79.00
46440;DHT22;32138;50.966;6.968;2023-06-26T01:19:01;23.80;78.90
46440;DHT22;32138;50.966;6.968;2023-06-26T01:20:36;23.80;79.10
46440;DHT22;32138;50.966;6.968;2023-06-26T01:22:24;23.90;79.10
46440;DHT22;32138;50.966;6.968;2023-06-26T01:24:17;23.80;79.20
46440;DHT22;32138;50.966;6.968;2023-06-26T01:27:49;23.90;79.20
46440;DHT22;32138;50.966;6.968;2023-06-26T01:29:21;23.90;79.10
46440;DHT22;32138;50.966;6.968;2023-06-26T01:30:54;23.90;79.30
46440;DHT22;32138;50.966;6.968;2023-06-26T01:32:25;23.90;79.30
46440;DHT22;32138;50.966;6.968;2023-06-26T01:33:58;23.80;79.60
46440;DHT22;32138;50.966;6.968;2023-06-26T01:35:29;23.80;79.80
46440;DHT22;32138;50.966;6.968;2023-06-26T01:37:00;23.80;80.30
46440;DHT22;32138;50.966;6.968;2023-06-26T01:38:31;24.00;79.60
46440;DHT22;32138;50.966;6.968;2023-06-26T01:40:02;24.00;79.80
46440;DHT22;32138;50.966;6.968;2023-06-26T01:41:36;23.80;80.70
46440;DHT22;32138;50.966;6.968;2023-06-26T01:45:01;23.80;80.50
46440;DHT22;32138;50.966;6.968;2023-06-26T01:48:33;23.70;80.80
46440;DHT22;32138;50.966;6.968;2023-06-26T01:50:17;23.70;80.90
46440;DHT22;32138;50.966;6.968;2023-06-26T01:54:01;23.80;80.70
46440;DHT22;32138;50.966;6.968;2023-06-26T01:57:31;23.50;81.50
46440;DHT22;32138;50.966;6.968;2023-06-26T01:59:02;23.60;81.60
46440;DHT22;32138;50.966;6.968;2023-06-26T02:00:36;23.50;81.60
46440;DHT22;32138;50.966;6.968;2023-06-26T02:02:08;23.50;81.80
46440;DHT22;32138;50.966;6.968;2023-06-26T02:03:38;23.50;82.10
46440;DHT22;32138;50.966;6.968;2023-06-26T02:05:09;23.50;81.70
46440;DHT22;32138;50.966;6.968;2023-06-26T02:06:40;23.50;81.80
46440;DHT22;32138;50.966;6.968;2023-06-26T02:08:13;23.50;81.60
46440;DHT22;32138;50.966;6.968;2023-06-26T02:09:44;23.60;81.30
46440;DHT22;32138;50.966;6.968;2023-06-26T02:11:15;23.70;81.30
46440;DHT22;32138;50.966;6.968;2023-06-26T02:12:46;23.70;80.70
46440;DHT22;32138;50.966;6.968;2023-06-26T02:14:16;23.70;80.30
46440;DHT22;32138;50.966;6.968;2023-06-26T02:15:47;23.60;81.00
46440;DHT22;32138;50.966;6.968;2023-06-26T02:17:18;23.40;81.60
46440;DHT22;32138;50.966;6.968;2023-06-26T02:18:49;23.30;81.90
46440;DHT22;32138;50.966;6.968;2023-06-26T02:20:20;23.30;82.20
46440;DHT22;32138;50.966;6.968;2023-06-26T02:21:50;23.30;82.70
46440;DHT22;32138;50.966;6.968;2023-06-26T02:23:21;23.40;82.00
46440;DHT22;32138;50.966;6.968;2023-06-26T02:24:52;23.30;82.10
46440;DHT22;32138;50.966;6.968;2023-06-26T02:26:23;23.30;82.10
46440;DHT22;32138;50.966;6.968;2023-06-26T02:27:53;23.30;82.10
46440;DHT22;32138;50.966;6.968;2023-06-26T02:29:25;23.20;82.50
46440;DHT22;32138;50.966;6.968;2023-06-26T02:30:56;23.10;82.90
46440;DHT22;32138;50.966;6.968;2023-06-26T02:32:27;23.10;83.30
46440;DHT22;32138;50.966;6.968;2023-06-26T02:33:57;23.10;83.40
46440;DHT22;32138;50.966;6.968;2023-06-26T02:35:28;23.10;83.70
46440;DHT22;32138;50.966;6.968;2023-06-26T02:36:59;23.00;83.90
46440;DHT22;32138;50.966;6.968;2023-06-26T02:38:30;23.00;84.10
46440;DHT22;32138;50.966;6.968;2023-06-26T02:40:01;23.10;83.90
46440;DHT22;32138;50.966;6.968;2023-06-26T02:41:33;23.40;83.30
46440;DHT22;32138;50.966;6.968;2023-06-26T02:43:04;23.30;83.40
46440;DHT22;32138;50.966;6.968;2023-06-26T02:44:35;23.10;84.20
46440;DHT22;32138;50.966;6.968;2023-06-26T02:46:05;23.00;84.80
46440;DHT22;32138;50.966;6.968;2023-06-26T02:47:36;23.00;85.00
46440;DHT22;32138;50.966;6.968;2023-06-26T02:49:09;23.00;85.50
46440;DHT22;32138;50.966;6.968;2023-06-26T02:50:40;23.00;85.30
46440;DHT22;32138;50.966;6.968;2023-06-26T02:52:11;23.00;85.80
46440;DHT22;32138;50.966;6.968;2023-06-26T02:53:42;22.90;86.80
46440;DHT22;32138;50.966;6.968;2023-06-26T02:55:12;22.90;86.50
46440;DHT22;32138;50.966;6.968;2023-06-26T02:56:43;23.10;86.10
46440;DHT22;32138;50.966;6.968;2023-06-26T02:58:14;23.10;85.70
46440;DHT22;32138;50.966;6.968;2023-06-26T02:59:44;23.30;85.60
46440;DHT22;32138;50.966;6.968;2023-06-26T03:01:15;23.40;85.50
46440;DHT22;32138;50.966;6.968;2023-06-26T03:02:46;23.30;85.80
46440;DHT22;32138;50.966;6.968;2023-06-26T03:04:17;23.30;86.10
46440;DHT22;32138;50.966;6.968;2023-06-26T03:05:48;23.30;86.10
46440;DHT22;32138;50.966;6.968;2023-06-26T03:07:19;23.00;87.30
46440;DHT22;32138;50.966;6.968;2023-06-26T03:08:49;23.00;87.10
46440;DHT22;32138;50.966;6.968;2023-06-26T03:10:20;23.10;86.70
46440;DHT22;32138;50.966;6.968;2023-06-26T03:11:51;23.10;86.60
46440;DHT22;32138;50.966;6.968;2023-06-26T03:13:23;23.10;86.80
46440;DHT22;32138;50.966;6.968;2023-06-26T03:14:54;23.10;86.70
46440;DHT22;32138;50.966;6.968;2023-06-26T03:16:24;23.30;85.50
46440;DHT22;32138;50.966;6.968;2023-06-26T03:17:55;23.40;85.30
46440;DHT22;32138;50.966;6.968;2023-06-26T03:19:26;23.40;84.60
46440;DHT22;32138;50.966;6.968;2023-06-26T03:20:57;23.50;84.30
46440;DHT22;32138;50.966;6.968;2023-06-26T03:22:28;23.40;83.70
46440;DHT22;32138;50.966;6.968;2023-06-26T03:23:59;23.30;84.40
46440;DHT22;32138;50.966;6.968;2023-06-26T03:25:29;23.30;84.00
46440;DHT22;32138;50.966;6.968;2023-06-26T03:27:00;23.30;84.20
46440;DHT22;32138;50.966;6.968;2023-06-26T03:28:31;23.40;83.80
46440;DHT22;32138;50.966;6.968;2023-06-26T03:30:02;23.50;83.70
46440;DHT22;32138;50.966;6.968;2023-06-26T03:31:33;23.50;83.40
46440;DHT22;32138;50.966;6.968;2023-06-26T03:33:03;23.60;83.40
46440;DHT22;32138;50.966;6.968;2023-06-26T03:34:34;23.60;82.30
46440;DHT22;32138;50.966;6.968;2023-06-26T03:36:05;23.70;82.70
46440;DHT22;32138;50.966;6.968;2023-06-26T03:37:36;23.60;82.90
46440;DHT22;32138;50.966;6.968;2023-06-26T03:39:07;23.60;82.80
46440;DHT22;32138;50.966;6.968;2023-06-26T03:40:37;23.70;82.20
46440;DHT22;32138;50.966;6.968;2023-06-26T03:42:08;23.70;82.30
46440;DHT22;32138;50.966;6.968;2023-06-26T03:43:39;23.70;82.80
46440;DHT22;32138;50.966;6.968;2023-06-26T03:45:10;23.80;82.80
46440;DHT22;32138;50.966;6.968;2023-06-26T03:46:40;23.90;82.60
46440;DHT22;32138;50.966;6.968;2023-06-26T03:48:11;23.80;82.80
46440;DHT22;32138;50.966;6.968;2023-06-26T03:49:42;23.70;82.80
46440;DHT22;32138;50.966;6.968;2023-06-26T03:51:13;23.60;83.20
46440;DHT22;32138;50.966;6.968;2023-06-26T03:52:44;23.70;83.50
46440;DHT22;32138;50.966;6.968;2023-06-26T03:54:15;23.70;83.60
46440;DHT22;32138;50.966;6.968;2023-06-26T03:55:46;23.60;84.50
46440;DHT22;32138;50.966;6.968;2023-06-26T03:57:16;23.70;83.80
46440;DHT22;32138;50.966;6.968;2023-06-26T03:58:48;23.80;83.50
46440;DHT22;32138;50.966;6.968;2023-06-26T04:00:19;23.60;83.90
46440;DHT22;32138;50.966;6.968;2023-06-26T04:01:49;23.70;83.90
46440;DHT22;32138;50.966;6.968;2023-06-26T04:03:20;23.80;83.70
46440;DHT22;32138;50.966;6.968;2023-06-26T04:04:51;23.80;84.00
46440;DHT22;32138;50.966;6.968;2023-06-26T04:06:22;23.80;83.80
46440;DHT22;32138;50.966;6.968;2023-06-26T04:07:53;23.90;83.80
46440;DHT22;32138;50.966;6.968;2023-06-26T04:09:25;23.80;83.90
46440;DHT22;32138;50.966;6.968;2023-06-26T04:10:56;23.90;84.30
46440;DHT22;32138;50.966;6.968;2023-06-26T04:12:29;23.80;84.30
46440;DHT22;32138;50.966;6.968;2023-06-26T04:13:59;23.90;84.40
46440;DHT22;32138;50.966;6.968;2023-06-26T04:15:30;23.80;84.90
46440;DHT22;32138;50.966;6.968;2023-06-26T04:17:01;23.90;84.60
46440;DHT22;32138;50.966;6.968;2023-06-26T04:18:33;23.90;84.60
46440;DHT22;32138;50.966;6.968;2023-06-26T04:20:04;23.90;84.90
46440;DHT22;32138;50.966;6.968;2023-06-26T04:21:39;23.90;85.20
46440;DHT22;32138;50.966;6.968;2023-06-26T04:23:10;23.90;85.20
46440;DHT22;32138;50.966;6.968;2023-06-26T04:24:41;23.90;85.30
46440;DHT22;32138;50.966;6.968;2023-06-26T04:26:12;23.80;85.70
46440;DHT22;32138;50.966;6.968;2023-06-26T04:27:44;23.80;85.90
46440;DHT22;32138;50.966;6.968;2023-06-26T04:29:15;23.80;86.30
46440;DHT22;32138;50.966;6.968;2023-06-26T04:30:46;23.70;86.30
46440;DHT22;32138;50.966;6.968;2023-06-26T04:32:16;23.80;86.80
46440;DHT22;32138;50.966;6.968;2023-06-26T04:33:47;23.80;86.50
46440;DHT22;32138;50.966;6.968;2023-06-26T04:35:21;23.90;86.70
46440;DHT22;32138;50.966;6.968;2023-06-26T04:36:52;23.80;86.90
46440;DHT22;32138;50.966;6.968;2023-06-26T04:38:23;23.80;86.90
46440;DHT22;32138;50.966;6.968;2023-06-26T04:39:54;23.80;87.20
46440;DHT22;32138;50.966;6.968;2023-06-26T04:41:25;23.80;87.10
46440;DHT22;32138;50.966;6.968;2023-06-26T04:42:55;23.80;88.00
46440;DHT22;32138;50.966;6.968;2023-06-26T04:44:26;23.70;87.30
46440;DHT22;32138;50.966;6.968;2023-06-26T04:45:57;23.70;87.30
46440;DHT22;32138;50.966;6.968;2023-06-26T04:47:28;23.80;87.40
46440;DHT22;32138;50.966;6.968;2023-06-26T04:48:58;23.80;87.20
46440;DHT22;32138;50.966;6.968;2023-06-26T04:50:30;23.90;87.10
46440;DHT22;32138;50.966;6.968;2023-06-26T04:52:04;23.90;87.10
46440;DHT22;32138;50.966;6.968;2023-06-26T04:53:34;23.70;87.40
46440;DHT22;32138;50.966;6.968;2023-06-26T04:55:05;23.80;87.50
46440;DHT22;32138;50.966;6.968;2023-06-26T04:56:37;23.80;87.30
46440;DHT22;32138;50.966;6.968;2023-06-26T04:58:10;23.70;88.00
46440;DHT22;32138;50.966;6.968;2023-06-26T04:59:40;23.60;88.20
46440;DHT22;32138;50.966;6.968;2023-06-26T05:01:11;23.50;88.60
46440;DHT22;32138;50.966;6.968;2023-06-26T05:02:43;23.40;89.00
46440;DHT22;32138;50.966;6.968;2023-06-26T05:04:15;23.50;88.70
46440;DHT22;32138;50.966;6.968;2023-06-26T05:05:46;23.60;88.10
46440;DHT22;32138;50.966;6.968;2023-06-26T05:07:17;23.60;88.00
46440;DHT22;32138;50.966;6.968;2023-06-26T05:08:48;23.60;88.00
46440;DHT22;32138;50.966;6.968;2023-06-26T05:10:18;23.70;88.20
46440;DHT22;32138;50.966;6.968;2023-06-26T05:11:49;23.70;87.90
46440;DHT22;32138;50.966;6.968;2023-06-26T05:13:20;23.80;87.50
46440;DHT22;32138;50.966;6.968;2023-06-26T05:14:51;23.80;87.50
46440;DHT22;32138;50.966;6.968;2023-06-26T05:16:22;23.80;87.10
46440;DHT22;32138;50.966;6.968;2023-06-26T05:17:52;23.60;88.00
46440;DHT22;32138;50.966;6.968;2023-06-26T05:19:23;23.70;87.80
46440;DHT22;32138;50.966;6.968;2023-06-26T05:20:54;23.70;87.10
46440;DHT22;32138;50.966;6.968;2023-06-26T05:22:26;23.50;87.60
46440;DHT22;32138;50.966;6.968;2023-06-26T05:23:57;23.50;87.70
46440;DHT22;32138;50.966;6.968;2023-06-26T05:25:29;23.60;86.70
46440;DHT22;32138;50.966;6.968;2023-06-26T05:27:01;23.60;87.10
46440;DHT22;32138;50.966;6.968;2023-06-26T05:28:33;23.70;87.50
46440;DHT22;32138;50.966;6.968;2023-06-26T05:30:06;23.60;87.50
46440;DHT22;32138;50.966;6.968;2023-06-26T05:31:41;23.60;87.60
46440;DHT22;32138;50.966;6.968;2023-06-26T05:33:14;23.50;87.30
46440;DHT22;32138;50.966;6.968;2023-06-26T05:34:49;23.50;87.50
46440;DHT22;32138;50.966;6.968;2023-06-26T05:36:20;23.50;87.40
46440;DHT22;32138;50.966;6.968;2023-06-26T05:37:52;23.50;87.10
46440;DHT22;32138;50.966;6.968;2023-06-26T05:39:25;23.50;87.10
46440;DHT22;32138;50.966;6.968;2023-06-26T05:40:56;23.50;87.50
46440;DHT22;32138;50.966;6.968;2023-06-26T05:42:27;23.70;87.50
46440;DHT22;32138;50.966;6.968;2023-06-26T05:43:58;23.80;86.70
46440;DHT22;32138;50.966;6.968;2023-06-26T05:45:29;23.70;87.00
46440;DHT22;32138;50.966;6.968;2023-06-26T05:46:59;23.70;87.00
46440;DHT22;32138;50.966;6.968;2023-06-26T05:48:30;23.80;87.00
46440;DHT22;32138;50.966;6.968;2023-06-26T05:50:01;23.50;87.50
46440;DHT22;32138;50.966;6.968;2023-06-26T05:51:33;23.50;87.90
46440;DHT22;32138;50.966;6.968;2023-06-26T05:53:04;23.50;88.20
46440;DHT22;32138;50.966;6.968;2023-06-26T05:54:36;23.40;88.50
46440;DHT22;32138;50.966;6.968;2023-06-26T05:56:07;23.40;88.20
46440;DHT22;32138;50.966;6.968;2023-06-26T05:57:39;23.50;87.90
46440;DHT22;32138;50.966;6.968;2023-06-26T05:59:11;23.50;87.80
46440;DHT22;32138;50.966;6.968;2023-06-26T06:00:42;23.50;88.30
46440;DHT22;32138;50.966;6.968;2023-06-26T06:02:13;23.50;88.10
46440;DHT22;32138;50.966;6.968;2023-06-26T06:03:44;23.40;88.00
46440;DHT22;32138;50.966;6.968;2023-06-26T06:05:15;23.40;88.60
46440;DHT22;32138;50.966;6.968;2023-06-26T06:06:46;23.30;89.00
46440;DHT22;32138;50.966;6.968;2023-06-26T06:08:17;23.40;88.40
46440;DHT22;32138;50.966;6.968;2023-06-26T06:09:48;23.20;89.70
46440;DHT22;32138;50.966;6.968;2023-06-26T06:11:19;23.30;89.50
46440;DHT22;32138;50.966;6.968;2023-06-26T06:12:49;23.40;89.70
46440;DHT22;32138;50.966;6.968;2023-06-26T06:14:20;23.40;89.70
46440;DHT22;32138;50.966;6.968;2023-06-26T06:15:51;23.50;89.00
46440;DHT22;32138;50.966;6.968;2023-06-26T06:17:22;23.50;88.90
46440;DHT22;32138;50.966;6.968;2023-06-26T06:18:53;23.30;89.10
46440;DHT22;32138;50.966;6.968;2023-06-26T06:20:24;23.20;89.60
46440;DHT22;32138;50.966;6.968;2023-06-26T06:21:55;23.00;90.10
46440;DHT22;32138;50.966;6.968;2023-06-26T06:23:27;22.90;90.40
46440;DHT22;32138;50.966;6.968;2023-06-26T06:24:58;22.90;90.60
46440;DHT22;32138;50.966;6.968;2023-06-26T06:26:28;22.90;90.70
46440;DHT22;32138;50.966;6.968;2023-06-26T06:27:59;22.90;90.70
46440;DHT22;32138;50.966;6.968;2023-06-26T06:29:30;23.00;90.60
46440;DHT22;32138;50.966;6.968;2023-06-26T06:31:01;22.90;90.80
46440;DHT22;32138;50.966;6.968;2023-06-26T06:32:32;23.00;90.90
46440;DHT22;32138;50.966;6.968;2023-06-26T06:34:03;23.00;90.80
46440;DHT22;32138;50.966;6.968;2023-06-26T06:35:33;22.90;90.90
46440;DHT22;32138;50.966;6.968;2023-06-26T06:37:04;23.00;91.00
46440;DHT22;32138;50.966;6.968;2023-06-26T06:38:35;22.90;91.10
46440;DHT22;32138;50.966;6.968;2023-06-26T06:40:06;22.80;91.20
46440;DHT22;32138;50.966;6.968;2023-06-26T06:41:38;22.80;91.50
46440;DHT22;32138;50.966;6.968;2023-06-26T06:43:09;22.80;91.10
46440;DHT22;32138;50.966;6.968;2023-06-26T06:44:41;22.80;91.10
46440;DHT22;32138;50.966;6.968;2023-06-26T06:46:12;22.80;91.30
46440;DHT22;32138;50.966;6.968;2023-06-26T06:47:42;22.90;91.30
46440;DHT22;32138;50.966;6.968;2023-06-26T06:49:13;22.90;91.20
46440;DHT22;32138;50.966;6.968;2023-06-26T06:50:44;22.90;91.20
46440;DHT22;32138;50.966;6.968;2023-06-26T06:52:15;22.90;91.40
46440;DHT22;32138;50.966;6.968;2023-06-26T06:53:45;22.80;91.50
46440;DHT22;32138;50.966;6.968;2023-06-26T06:55:16;22.80;91.50
46440;DHT22;32138;50.966;6.968;2023-06-26T06:56:47;22.70;91.60
46440;DHT22;32138;50.966;6.968;2023-06-26T06:58:18;22.70;91.60
46440;DHT22;32138;50.966;6.968;2023-06-26T06:59:52;22.70;91.60
46440;DHT22;32138;50.966;6.968;2023-06-26T07:01:23;22.70;91.80
46440;DHT22;32138;50.966;6.968;2023-06-26T07:02:54;22.80;91.80
46440;DHT22;32138;50.966;6.968;2023-06-26T07:04:26;22.80;92.00
46440;DHT22;32138;50.966;6.968;2023-06-26T07:05:57;22.60;91.90
46440;DHT22;32138;50.966;6.968;2023-06-26T07:07:29;22.50;92.10
46440;DHT22;32138;50.966;6.968;2023-06-26T07:09:01;22.70;92.20
46440;DHT22;32138;50.966;6.968;2023-06-26T07:10:33;22.80;92.00
46440;DHT22;32138;50.966;6.968;2023-06-26T07:12:04;22.80;92.00
46440;DHT22;32138;50.966;6.968;2023-06-26T07:13:35;22.90;92.00
46440;DHT22;32138;50.966;6.968;2023-06-26T07:15:06;23.00;92.10
46440;DHT22;32138;50.966;6.968;2023-06-26T07:16:37;22.90;92.20
46440;DHT22;32138;50.966;6.968;2023-06-26T07:18:08;22.90;92.10
46440;DHT22;32138;50.966;6.968;2023-06-26T07:19:39;22.90;92.20
46440;DHT22;32138;50.966;6.968;2023-06-26T07:21:10;23.00;92.10
46440;DHT22;32138;50.966;6.968;2023-06-26T07:22:41;23.10;92.00
46440;DHT22;32138;50.966;6.968;2023-06-26T07:24:13;23.20;92.20
46440;DHT22;32138;50.966;6.968;2023-06-26T07:25:44;23.20;91.90
46440;DHT22;32138;50.966;6.968;2023-06-26T07:27:18;23.10;92.20
46440;DHT22;32138;50.966;6.968;2023-06-26T07:28:49;23.10;92.40
46440;DHT22;32138;50.966;6.968;2023-06-26T07:30:20;23.20;92.40
46440;DHT22;32138;50.966;6.968;2023-06-26T07:31:50;23.20;92.20
46440;DHT22;32138;50.966;6.968;2023-06-26T07:33:21;23.30;92.10
46440;DHT22;32138;50.966;6.968;2023-06-26T07:34:52;23.10;92.20
46440;DHT22;32138;50.966;6.968;2023-06-26T07:36:23;23.20;92.30
46440;DHT22;32138;50.966;6.968;2023-06-26T07:37:53;23.10;92.30
46440;DHT22;32138;50.966;6.968;2023-06-26T07:39:24;22.90;92.50
46440;DHT22;32138;50.966;6.968;2023-06-26T07:40:55;23.00;92.60
46440;DHT22;32138;50.966;6.968;2023-06-26T07:42:25;23.00;92.70
46440;DHT22;32138;50.966;6.968;2023-06-26T07:43:57;23.00;92.60
46440;DHT22;32138;50.966;6.968;2023-06-26T07:45:28;23.10;92.40
46440;DHT22;32138;50.966;6.968;2023-06-26T07:46:59;23.10;92.50
46440;DHT22;32138;50.966;6.968;2023-06-26T07:48:30;23.00;92.60
46440;DHT22;32138;50.966;6.968;2023-06-26T07:50:00;23.10;92.60
46440;DHT22;32138;50.966;6.968;2023-06-26T07:51:32;23.30;93.00
46440;DHT22;32138;50.966;6.968;2023-06-26T07:53:02;23.30;92.80
46440;DHT22;32138;50.966;6.968;2023-06-26T07:54:35;23.20;92.80
46440;DHT22;32138;50.966;6.968;2023-06-26T07:56:06;23.10;92.70
46440;DHT22;32138;50.966;6.968;2023-06-26T07:57:37;23.10;93.00
46440;DHT22;32138;50.966;6.968;2023-06-26T07:59:08;23.30;92.60
46440;DHT22;32138;50.966;6.968;2023-06-26T08:00:40;23.30;92.50
46440;DHT22;32138;50.966;6.968;2023-06-26T08:02:11;23.40;92.20
46440;DHT22;32138;50.966;6.968;2023-06-26T08:03:42;23.50;92.00
46440;DHT22;32138;50.966;6.968;2023-06-26T08:05:13;23.60;92.10
46440;DHT22;32138;50.966;6.968;2023-06-26T08:06:43;23.60;92.20
46440;DHT22;32138;50.966;6.968;2023-06-26T08:08:14;23.80;91.90
46440;DHT22;32138;50.966;6.968;2023-06-26T08:09:45;23.80;91.70
46440;DHT22;32138;50.966;6.968;2023-06-26T08:11:16;23.70;91.70
46440;DHT22;32138;50.966;6.968;2023-06-26T08:12:46;23.70;91.70
46440;DHT22;32138;50.966;6.968;2023-06-26T08:14:19;23.90;91.90
46440;DHT22;32138;50.966;6.968;2023-06-26T08:15:50;23.80;91.70
46440;DHT22;32138;50.966;6.968;2023-06-26T08:17:20;23.80;91.70
46440;DHT22;32138;50.966;6.968;2023-06-26T08:18:51;23.80;91.60
46440;DHT22;32138;50.966;6.968;2023-06-26T08:20:22;23.80;91.40
46440;DHT22;32138;50.966;6.968;2023-06-26T08:21:53;23.70;91.60
46440;DHT22;32138;50.966;6.968;2023-06-26T08:23:24;23.50;91.80
46440;DHT22;32138;50.966;6.968;2023-06-26T08:24:55;23.60;92.00
46440;DHT22;32138;50.966;6.968;2023-06-26T08:26:25;23.80;91.80
46440;DHT22;32138;50.966;6.968;2023-06-26T08:27:56;23.70;92.10
46440;DHT22;32138;50.966;6.968;2023-06-26T08:29:27;23.90;92.10
46440;DHT22;32138;50.966;6.968;2023-06-26T08:30:57;23.90;91.70
46440;DHT22;32138;50.966;6.968;2023-06-26T08:32:29;23.90;91.40
46440;DHT22;32138;50.966;6.968;2023-06-26T08:34:04;23.80;91.60
46440;DHT22;32138;50.966;6.968;2023-06-26T08:35:35;23.80;91.50
46440;DHT22;32138;50.966;6.968;2023-06-26T08:37:06;23.70;91.60
46440;DHT22;32138;50.966;6.968;2023-06-26T08:38:39;23.70;91.70
46440;DHT22;32138;50.966;6.968;2023-06-26T08:40:16;23.70;91.90
46440;DHT22;32138;50.966;6.968;2023-06-26T08:41:49;23.90;92.00
46440;DHT22;32138;50.966;6.968;2023-06-26T08:43:19;23.90;91.80
46440;DHT22;32138;50.966;6.968;2023-06-26T08:44:52;23.90;91.50
46440;DHT22;32138;50.966;6.968;2023-06-26T08:46:23;23.80;91.30
46440;DHT22;32138;50.966;6.968;2023-06-26T08:47:55;23.90;91.20
46440;DHT22;32138;50.966;6.968;2023-06-26T08:51:17;23.90;91.30
46440;DHT22;32138;50.966;6.968;2023-06-26T08:52:52;23.90;91.20
46440;DHT22;32138;50.966;6.968;2023-06-26T08:54:30;24.10;91.10
46440;DHT22;32138;50.966;6.968;2023-06-26T08:56:06;24.10;91.10
46440;DHT22;32138;50.966;6.968;2023-06-26T08:57:37;24.10;91.10
46440;DHT22;32138;50.966;6.968;2023-06-26T08:59:09;24.00;91.30
46440;DHT22;32138;50.966;6.968;2023-06-26T09:00:41;23.90;91.40
46440;DHT22;32138;50.966;6.968;2023-06-26T09:02:12;23.70;91.50
46440;DHT22;32138;50.966;6.968;2023-06-26T09:03:43;23.80;91.60
46440;DHT22;32138;50.966;6.968;2023-06-26T09:05:14;23.90;91.70
46440;DHT22;32138;50.966;6.968;2023-06-26T09:06:45;23.90;91.40
46440;DHT22;32138;50.966;6.968;2023-06-26T09:08:16;23.90;91.40
46440;DHT22;32138;50.966;6.968;2023-06-26T09:09:47;23.90;91.60
46440;DHT22;32138;50.966;6.968;2023-06-26T09:11:18;23.80;91.30
46440;DHT22;32138;50.966;6.968;2023-06-26T09:12:48;23.90;91.30
46440;DHT22;32138;50.966;6.968;2023-06-26T09:14:20;24.00;91.30
46440;DHT22;32138;50.966;6.968;2023-06-26T09:15:54;24.00;91.20
46440;DHT22;32138;50.966;6.968;2023-06-26T09:17:27;23.90;91.20
46440;DHT22;32138;50.966;6.968;2023-06-26T09:19:00;23.90;91.20
46440;DHT22;32138;50.966;6.968;2023-06-26T09:20:31;23.80;91.30
46440;DHT22;32138;50.966;6.968;2023-06-26T09:22:05;23.80;91.40
46440;DHT22;32138;50.966;6.968;2023-06-26T09:23:42;23.90;91.40
46440;DHT22;32138;50.966;6.968;2023-06-26T09:25:13;24.00;91.30
46440;DHT22;32138;50.966;6.968;2023-06-26T09:26:44;24.10;91.30
46440;DHT22;32138;50.966;6.968;2023-06-26T09:28:15;24.20;91.10
46440;DHT22;32138;50.966;6.968;2023-06-26T09:29:46;24.20;90.60
46440;DHT22;32138;50.966;6.968;2023-06-26T09:31:17;24.20;90.50
46440;DHT22;32138;50.966;6.968;2023-06-26T09:32:51;24.10;90.40
46440;DHT22;32138;50.966;6.968;2023-06-26T09:34:30;24.20;90.40
46440;DHT22;32138;50.966;6.968;2023-06-26T09:36:05;24.30;90.50
46440;DHT22;32138;50.966;6.968;2023-06-26T09:37:40;24.30;90.30
46440;DHT22;32138;50.966;6.968;2023-06-26T09:39:11;24.30;90.10
46440;DHT22;32138;50.966;6.968;2023-06-26T09:40:42;24.20;89.50
46440;DHT22;32138;50.966;6.968;2023-06-26T09:42:15;24.20;89.40
46440;DHT22;32138;50.966;6.968;2023-06-26T09:43:50;24.10;89.20
46440;DHT22;32138;50.966;6.968;2023-06-26T09:45:21;24.10;88.70
46440;DHT22;32138;50.966;6.968;2023-06-26T09:46:55;24.10;88.70
46440;DHT22;32138;50.966;6.968;2023-06-26T09:48:26;24.10;88.40
46440;DHT22;32138;50.966;6.968;2023-06-26T09:49:57;24.20;88.60